Strona główna
Zdjęcia satelitarne 15-dni prognozyKlimatMeteorologia morska Cyklony Błyskawica LotniskoFAQ Gazetka O
Pogoda : Europa Afryka Ameryka Północna Ameryka Południowa Azja Australia-Oceania Inny
Języki Kontakt

Katowice, Polska

Pyrzowice

Szerokość geograficzna: 50-28-27N, Długość geograficzna: 019-04-48E, wysokość: 284 m


METAR: EPKT 301730Z VRB02KT 6000 NSC 18/14 Q1024
TAF: EPKT 301730Z 3018/0103 VRB02KT 7000 NSC BECMG 3020/3023 3000 BR BKN017 TEMPO 3023/0103 BKN006 BKN011

czas: 19:50 (17:50 UTC)

Aktualna obserwacja pogody

Raport powstał 20 minut temu, godzina 17:30 UTC  
Wiatr 02 kt z kierunków zmiennych
Temperatura 18°C
Wilgotność 77%
Ciśnienie 1024 hPa
Widzialność 6000 m

Jednostka miary

Prognoza

Raport powstał 20 minut temu, godzina 17:30 UTC  
Prognoza ważna od 30 godzina 18 UTC do 01 godzina 03 UTC
Wiatr 02 kt z kierunków zmiennych
Widzialność 7000 m
Stopniowe zmiany
od 30 godzina 20 UTC do 30 godzina 23 UTC
Widzialność 3000 m
Przerywane chmury na wysokości 1700 ft
zamglenie
Przejściowo
od 30 godzina 23 UTC do 01 godzina 03 UTC
Przerywane chmury na wysokości 600 ft
Przerywane chmury na wysokości 1100 ft
Informacje na tej stronie internetowej podlegają klauzuli o wyłączeniu odpowiedzialności
Pogoda : Europa Afryka Ameryka Północna Ameryka Południowa Azja Australia-Oceania Inny
Zdjęcia satelitarne 15-dni prognozyKlimatMeteorologia morska Cyklony Błyskawica LotniskoFAQ Języki Kontakt Gazetka O